Time;durP1;ratioP1;P1;durP2;ratioP2;P2;SDS_P1;SDS_P2;PMS_P1;PMS_P2;Temp;Humidity;BMP_temperature;BMP_pressure;BME280_temperature;BME280_humidity;BME280_pressure;Samples;Min_cycle;Max_cycle;Signal;HPM_P1;HPM_P2
2022/03/01 00:01:48;;;;;;;8.83;3.00;;;;;;;;;;4872652;29;20034;-84
2022/03/01 00:04:19;;;;;;;9.40;2.87;;;;;;;;;;4861617;29;20038;-84
2022/03/01 00:07:07;;;;;;;9.53;3.10;;;;;;;;;;4843103;29;20062;-84
2022/03/01 00:09:53;;;;;;;11.03;3.80;;;;;;;;;;4842088;29;20068;-84
2022/03/01 00:12:45;;;;;;;9.87;2.77;;;;;;;;;;4858077;29;20034;-84
2022/03/01 00:15:35;;;;;;;12.15;3.47;;;;;;;;;;4864723;29;20046;-84
2022/03/01 00:18:36;;;;;;;8.13;3.03;;;;;;;;;;4870288;29;20037;-84
2022/03/01 00:21:40;;;;;;;12.27;3.73;;;;;;;;;;4858975;29;20046;-84
2022/03/01 00:24:28;;;;;;;8.70;3.40;;;;;;;;;;4852715;29;20042;-84
2022/03/01 00:27:05;;;;;;;9.80;3.03;;;;;;;;;;4826810;29;20060;-84
2022/03/01 00:29:57;;;;;;;7.17;3.00;;;;;;;;;;4864711;29;20033;-85
2022/03/01 00:32:31;;;;;;;9.17;3.87;;;;;;;;;;4882652;29;20044;-84
2022/03/01 00:35:23;;;;;;;10.60;3.53;;;;;;;;;;4876226;29;20053;-84
2022/03/01 00:38:04;;;;;;;11.65;4.35;;;;;;;;;;4871513;29;20042;-84
2022/03/01 00:40:42;;;;;;;8.93;3.50;;;;;;;;;;4878934;29;20032;-85
2022/03/01 00:43:26;;;;;;;;;;;;;;;;;;;;;
2022/03/01 00:46:09;;;;;;;10.20;3.43;;;;;;;;;;4868257;29;20116;-84
2022/03/01 00:48:43;;;;;;;12.02;4.10;;;;;;;;;;4867486;29;20025;-84
2022/03/01 00:51:23;;;;;;;10.67;3.50;;;;;;;;;;4861198;29;20118;-84
2022/03/01 00:54:25;;;;;;;11.17;3.57;;;;;;;;;;4859067;29;20133;-84
2022/03/01 00:57:23;;;;;;;10.73;3.50;;;;;;;;;;4806199;29;20103;-84
2022/03/01 00:59:59;;;;;;;8.93;3.37;;;;;;;;;;4812077;29;20108;-84
2022/03/01 01:02:39;;;;;;;13.77;3.43;;;;;;;;;;4866095;29;20148;-84
2022/03/01 01:05:28;;;;;;;;;;;;;;;;;;;;;
2022/03/01 01:07:57;;;;;;;8.33;2.97;;;;;;;;;;4866976;29;20035;-84
2022/03/01 01:10:53;;;;;;;;;;;;;;;;;;;;;
2022/03/01 01:14:04;;;;;;;10.23;3.40;;;;;;;;;;4860080;29;20033;-84
2022/03/01 01:17:05;;;;;;;;;;;;;;;;;;;;;
2022/03/01 01:19:51;;;;;;;6.67;3.50;;;;;;;;;;4869963;29;20036;-84
2022/03/01 01:28:57;;;;;;;8.57;3.40;;;;;;;;;;4864535;29;20033;-84
2022/03/01 01:31:36;;;;;;;;;;;;;;;;;;;;;
2022/03/01 01:34:10;;;;;;;11.17;3.93;;;;;;;;;;4866193;29;20055;-84
2022/03/01 01:36:53;;;;;;;9.63;4.07;;;;;;;;;;4868035;29;20032;-84
2022/03/01 01:42:38;;;;;;;9.53;4.87;;;;;;;;;;4861306;29;20048;-84
2022/03/01 01:48:53;;;;;;;9.40;3.33;;;;;;;;;;4867994;29;20057;-84
2022/03/01 01:51:25;;;;;;;10.80;3.63;;;;;;;;;;4858131;29;20044;-84
2022/03/01 01:54:19;;;;;;;10.80;3.83;;;;;;;;;;4861822;29;20037;-84
2022/03/01 01:57:23;;;;;;;13.33;3.53;;;;;;;;;;4856021;29;20033;-84
2022/03/01 02:00:15;;;;;;;7.80;2.63;;;;;;;;;;4856620;29;20590;-84
2022/03/01 02:06:12;;;;;;;11.00;3.75;;;;;;;;;;4862272;29;20056;-84
2022/03/01 02:14:46;;;;;;;11.50;3.70;;;;;;;;;;4868484;29;20120;-84
2022/03/01 02:17:27;;;;;;;9.47;3.80;;;;;;;;;;4862061;29;20029;-84
2022/03/01 02:23:33;;;;;;;;;;;;;;;;;;;;;
2022/03/01 02:26:17;;;;;;;9.77;3.43;;;;;;;;;;4863363;29;20033;-84
2022/03/01 02:35:40;;;;;;;;;;;;;;;;;;;;;
2022/03/01 02:38:46;;;;;;;9.97;3.83;;;;;;;;;;4867568;29;20047;-84
2022/03/01 02:41:58;;;;;;;11.87;3.43;;;;;;;;;;4856660;29;20045;-84
2022/03/01 02:44:37;;;;;;;8.73;3.13;;;;;;;;;;4864419;29;20087;-84
2022/03/01 02:47:15;;;;;;;;;;;;;;;;;;;;;
2022/03/01 02:50:23;;;;;;;10.17;3.47;;;;;;;;;;4857725;29;20036;-85
2022/03/01 02:53:38;;;;;;;8.50;3.10;;;;;;;;;;4865404;29;20040;-84
2022/03/01 03:05:33;;;;;;;9.37;3.70;;;;;;;;;;4842646;29;20089;-85
2022/03/01 03:08:07;;;;;;;10.70;4.22;;;;;;;;;;4858794;29;20112;-85
2022/03/01 03:16:57;;;;;;;9.93;3.20;;;;;;;;;;4864535;29;20041;-84
2022/03/01 03:19:44;;;;;;;;;;;;;;;;;;;;;
2022/03/01 03:22:48;;;;;;;10.47;3.37;;;;;;;;;;4873344;29;20124;-83
2022/03/01 03:31:18;;;;;;;8.10;3.43;;;;;;;;;;4865483;29;20057;-84
2022/03/01 03:33:53;;;;;;;9.97;3.67;;;;;;;;;;4859132;29;20090;-84
2022/03/01 03:36:34;;;;;;;;;;;;;;;;;;;;;
2022/03/01 03:39:34;;;;;;;8.98;3.42;;;;;;;;;;4866853;29;20526;-84
2022/03/01 03:42:38;;;;;;;9.77;3.30;;;;;;;;;;4863412;29;20030;-84
2022/03/01 03:45:44;;;;;;;9.97;3.63;;;;;;;;;;4849516;29;20448;-85
2022/03/01 03:48:32;;;;;;;10.93;3.40;;;;;;;;;;4862089;29;20494;-84
2022/03/01 03:51:25;;;;;;;10.57;3.50;;;;;;;;;;4855209;29;20557;-84
2022/03/01 03:57:28;;;;;;;10.45;3.67;;;;;;;;;;4802504;29;20039;-84
2022/03/01 04:03:07;;;;;;;7.00;3.07;;;;;;;;;;4803801;29;20035;-84
2022/03/01 04:06:14;;;;;;;8.00;3.53;;;;;;;;;;4786039;29;20501;-84
2022/03/01 04:12:18;;;;;;;9.90;3.03;;;;;;;;;;4752427;30;20078;-84
2022/03/01 04:18:52;;;;;;;7.50;3.07;;;;;;;;;;4798308;29;20068;-84
2022/03/01 04:24:31;;;;;;;8.80;3.50;;;;;;;;;;4808869;29;20038;-84
2022/03/01 04:30:48;;;;;;;9.50;3.70;;;;;;;;;;4840531;23;20057;-84
2022/03/01 04:37:00;;;;;;;10.97;3.47;;;;;;;;;;4834841;29;20849;-84
2022/03/01 04:45:11;;;;;;;12.03;3.50;;;;;;;;;;4900350;29;20072;-88
2022/03/01 04:47:49;;;;;;;11.63;3.80;;;;;;;;;;4897971;29;20029;-88
2022/03/01 04:50:15;;;;;;;10.73;3.40;;;;;;;;;;4918014;29;20060;-88
2022/03/01 04:56:41;;;;;;;;;;;;;;;;;;;;;
2022/03/01 05:08:31;;;;;;;9.33;2.73;;;;;;;;;;4836897;29;20680;-88
2022/03/01 05:10:57;;;;;;;6.70;3.27;;;;;;;;;;4849223;29;20045;-88
2022/03/01 05:13:23;;;;;;;10.93;4.27;;;;;;;;;;4861604;29;20045;-88
2022/03/01 05:15:49;;;;;;;10.00;4.00;;;;;;;;;;4875169;29;20033;-88
2022/03/01 05:18:15;;;;;;;10.13;4.03;;;;;;;;;;4874580;29;20093;-87
2022/03/01 05:20:41;;;;;;;12.80;3.60;;;;;;;;;;4877483;29;20154;-88
2022/03/01 05:23:08;;;;;;;12.23;4.20;;;;;;;;;;4878210;29;20427;-88
2022/03/01 05:25:34;;;;;;;10.20;3.63;;;;;;;;;;4893812;29;20040;-88
2022/03/01 05:28:00;;;;;;;10.73;4.23;;;;;;;;;;4878726;29;20041;-88
2022/03/01 05:30:26;;;;;;;9.73;3.80;;;;;;;;;;4892993;29;20127;-89
2022/03/01 05:35:43;;;;;;;11.97;3.73;;;;;;;;;;4873797;29;20041;-89
2022/03/01 05:38:10;;;;;;;10.63;3.20;;;;;;;;;;4900914;29;20048;-89
2022/03/01 05:40:38;;;;;;;12.00;3.50;;;;;;;;;;4894913;29;20041;-89
2022/03/01 05:43:16;;;;;;;8.00;3.50;;;;;;;;;;4911102;29;20036;-89
2022/03/01 05:49:33;;;;;;;;;;;;;;;;;;;;;
2022/03/01 07:24:29;;;;;;;14.90;3.10;;;;;;;;;;4889059;29;20044;-88
2022/03/01 07:27:28;;;;;;;9.60;4.00;;;;;;;;;;4913915;29;20029;-88
2022/03/01 09:50:27;;;;;;;;;;;;;;;;;;;;;
2022/03/01 10:12:07;;;;;;;8.25;3.40;;;;;;;;;;4831723;29;20117;-89
2022/03/01 10:39:16;;;;;;;9.30;3.30;;;;;;;;;;5105632;23;20196;-89
2022/03/01 10:45:40;;;;;;;5.73;2.73;;;;;;;;;;4832705;29;20872;-90
2022/03/01 10:48:37;;;;;;;;;;;;;;;;;;;;;
2022/03/01 10:56:42;;;;;;;7.50;3.03;;;;;;;;;;5060843;23;20075;-88
2022/03/01 10:59:17;;;;;;;;;;;;;;;;;;4906612;29;20036;-89
2022/03/01 12:38:01;;;;;;;6.27;2.23;;;;;;;;;;4914584;29;20077;-88
2022/03/01 12:40:53;;;;;;;5.00;1.97;;;;;;;;;;4913554;29;20039;-89
2022/03/01 12:43:44;;;;;;;4.73;1.90;;;;;;;;;;4877568;29;20066;-89
2022/03/01 12:46:36;;;;;;;4.07;1.83;;;;;;;;;;4876248;29;20033;-89
2022/03/01 12:53:18;;;;;;;;;;;;;;;;;;;;;
2022/03/01 12:56:26;;;;;;;4.27;1.87;;;;;;;;;;4930987;29;20071;-89
2022/03/01 13:02:18;;;;;;;4.07;2.20;;;;;;;;;;4835904;29;20150;-89
2022/03/01 13:05:22;;;;;;;5.93;2.28;;;;;;;;;;4822229;29;20146;-90
2022/03/01 13:07:57;;;;;;;7.77;2.57;;;;;;;;;;4858959;29;20056;-86
2022/03/01 13:10:43;;;;;;;5.97;2.60;;;;;;;;;;4881945;29;20116;-86
2022/03/01 13:13:34;;;;;;;6.63;2.53;;;;;;;;;;4865729;29;20034;-86
2022/03/01 13:16:14;;;;;;;4.50;2.20;;;;;;;;;;4894528;29;20032;-89
2022/03/01 13:19:10;;;;;;;4.68;2.00;;;;;;;;;;4909639;29;20505;-89
2022/03/01 13:25:26;;;;;;;5.93;2.60;;;;;;;;;;4907690;29;20036;-90
2022/03/01 13:28:31;;;;;;;;;;;;;;;;;;;;;
2022/03/01 13:40:58;;;;;;;5.90;2.37;;;;;;;;;;4870492;29;20065;-90
2022/03/01 13:46:36;;;;;;;4.17;2.00;;;;;;;;;;4869013;29;20104;-90
2022/03/01 14:03:57;;;;;;;6.88;2.45;;;;;;;;;;5060020;23;20064;-91
2022/03/01 14:06:46;;;;;;;5.80;2.07;;;;;;;;;;4926443;29;20033;-90
2022/03/01 14:09:49;;;;;;;;;;;;;;;;;;;;;
2022/03/01 14:47:57;;;;;;;6.45;2.25;;;;;;;;;;4911792;29;20092;-89
2022/03/01 14:53:39;;;;;;;5.72;2.10;;;;;;;;;;5063515;23;20550;-89
2022/03/01 14:56:13;;;;;;;5.05;2.50;;;;;;;;;;4930590;29;20069;-89
2022/03/01 15:14:44;;;;;;;5.70;2.30;;;;;;;;;;4840097;29;20049;-88
2022/03/01 15:30:38;;;;;;;;;;;;;;;;;;;;;
2022/03/01 15:33:07;;;;;;;4.65;2.08;;;;;;;;;;5051090;23;20131;-88
2022/03/01 15:35:45;;;;;;;5.30;2.50;;;;;;;;;;4905383;29;20051;-87
2022/03/01 15:41:13;;;;;;;6.32;3.13;;;;;;;;;;4916781;29;20032;-86
2022/03/01 15:43:45;;;;;;;5.03;2.33;;;;;;;;;;4928908;29;20028;-87
2022/03/01 15:46:31;;;;;;;5.40;2.45;;;;;;;;;;4928743;29;20034;-87
2022/03/01 15:49:04;;;;;;;5.95;2.65;;;;;;;;;;4933639;29;20040;-88
2022/03/01 15:51:36;;;;;;;6.25;2.60;;;;;;;;;;4898895;29;20631;-88
2022/03/01 15:54:07;;;;;;;5.30;2.17;;;;;;;;;;4896746;29;20028;-88
2022/03/01 15:56:55;;;;;;;4.65;2.28;;;;;;;;;;4911852;29;20044;-87
2022/03/01 15:59:23;;;;;;;5.90;2.53;;;;;;;;;;4897647;29;20044;-87
2022/03/01 16:01:53;;;;;;;6.25;2.70;;;;;;;;;;4925179;29;20047;-88
2022/03/01 16:04:45;;;;;;;7.95;3.05;;;;;;;;;;4931677;29;20029;-88
2022/03/01 16:07:17;;;;;;;6.22;2.42;;;;;;;;;;4911235;29;20036;-90
2022/03/01 16:12:55;;;;;;;;;;;;;;;;;;;;;
2022/03/01 16:21:47;;;;;;;5.30;2.20;;;;;;;;;;4885977;29;20029;-89
2022/03/01 16:27:40;;;;;;;5.27;2.63;;;;;;;;;;4837299;29;20038;-88
2022/03/01 16:30:34;;;;;;;;;;;;;;;;;;;;;
2022/03/01 16:33:13;;;;;;;4.00;1.97;;;;;;;;;;4935959;23;20537;-89
2022/03/01 16:36:16;;;;;;;4.93;2.22;;;;;;;;;;4925925;29;20021;-89
2022/03/01 16:42:09;;;;;;;6.67;2.60;;;;;;;;;;4849256;29;20049;-88
2022/03/01 19:52:35;;;;;;;9.33;3.67;;;;;;;;;;4892683;27;20048;-91
2022/03/01 19:55:04;;;;;;;11.27;3.20;;;;;;;;;;4897730;29;20064;-90
2022/03/01 19:57:31;;;;;;;8.33;3.57;;;;;;;;;;4898460;29;20036;-91
2022/03/01 20:03:38;;;;;;;8.30;3.27;;;;;;;;;;4891654;29;20548;-86
2022/03/01 20:16:11;;;;;;;11.13;3.93;;;;;;;;;;4752382;29;20043;-85
2022/03/01 20:25:27;;;;;;;8.97;4.50;;;;;;;;;;4788275;30;20051;-88
2022/03/01 20:28:01;;;;;;;8.40;3.50;;;;;;;;;;4805788;29;20048;-88
2022/03/01 20:30:37;;;;;;;10.90;3.73;;;;;;;;;;4897890;29;20703;-88
2022/03/01 20:33:28;;;;;;;12.73;4.13;;;;;;;;;;4898550;29;20036;-88
2022/03/01 20:39:01;;;;;;;15.77;4.47;;;;;;;;;;4852846;29;20409;-89
2022/03/01 20:41:35;;;;;;;10.47;3.90;;;;;;;;;;4882337;29;20037;-89
2022/03/01 20:44:11;;;;;;;8.07;3.60;;;;;;;;;;4881926;29;20029;-90
2022/03/01 20:49:56;;;;;;;11.80;4.65;;;;;;;;;;4894201;29;20485;-88
2022/03/01 20:52:31;;;;;;;17.13;5.68;;;;;;;;;;4901698;29;20040;-89
2022/03/01 20:55:13;;;;;;;13.60;5.97;;;;;;;;;;4899011;29;20040;-88
2022/03/01 20:57:47;;;;;;;11.48;4.80;;;;;;;;;;4899716;29;20025;-89
2022/03/01 21:00:23;;;;;;;12.30;5.03;;;;;;;;;;4900665;29;20096;-89
2022/03/01 21:03:22;;;;;;;12.37;4.87;;;;;;;;;;4901610;29;20100;-87
2022/03/01 21:05:54;;;;;;;13.67;5.03;;;;;;;;;;4901371;29;20028;-88
2022/03/01 21:08:30;;;;;;;11.00;4.13;;;;;;;;;;4898248;29;20029;-87
2022/03/01 21:10:57;;;;;;;12.70;4.83;;;;;;;;;;4881009;29;20052;-87
2022/03/01 21:13:33;;;;;;;10.07;5.17;;;;;;;;;;4888002;29;20044;-87
2022/03/01 21:16:17;;;;;;;10.70;4.60;;;;;;;;;;4899609;29;20110;-88
2022/03/01 21:18:48;;;;;;;9.90;4.40;;;;;;;;;;4883156;29;20037;-87
2022/03/01 21:21:20;;;;;;;8.80;3.75;;;;;;;;;;4880308;29;20029;-88
2022/03/01 21:23:53;;;;;;;13.75;4.15;;;;;;;;;;4880276;29;20085;-88
2022/03/01 21:26:21;;;;;;;11.17;4.90;;;;;;;;;;4879988;29;20071;-88
2022/03/01 21:28:54;;;;;;;8.10;4.37;;;;;;;;;;4880518;29;20028;-88
2022/03/01 21:31:28;;;;;;;11.20;4.70;;;;;;;;;;4881674;29;20021;-88
2022/03/01 21:34:33;;;;;;;11.90;4.43;;;;;;;;;;4880413;29;20609;-88
2022/03/01 21:37:07;;;;;;;11.30;4.50;;;;;;;;;;4885565;29;20039;-88
2022/03/01 21:39:50;;;;;;;12.47;4.60;;;;;;;;;;4902505;29;20120;-88
2022/03/01 21:42:24;;;;;;;;;;;;;;;;;;4899989;29;20041;-88
2022/03/01 21:45:13;;;;;;;9.37;4.33;;;;;;;;;;4888509;29;19912;-88
2022/03/01 21:48:01;;;;;;;9.50;3.90;;;;;;;;;;4880409;29;20037;-88
2022/03/01 21:50:27;;;;;;;11.50;4.30;;;;;;;;;;4885985;29;20049;-88
2022/03/01 21:53:12;;;;;;;9.30;4.40;;;;;;;;;;4888903;29;20077;-88
2022/03/01 21:55:49;;;;;;;8.30;3.90;;;;;;;;;;4881598;29;20076;-88
2022/03/01 22:02:01;;;;;;;;;;;;;;;;;;;;;
2022/03/01 22:04:41;;;;;;;12.73;5.37;;;;;;;;;;4897002;29;20044;-89
2022/03/01 22:07:37;;;;;;;9.37;4.07;;;;;;;;;;4879709;29;20129;-88
2022/03/01 22:10:13;;;;;;;9.97;4.30;;;;;;;;;;4879091;29;20033;-88
2022/03/01 22:12:49;;;;;;;9.60;3.93;;;;;;;;;;4881288;29;20100;-89
2022/03/01 22:15:18;;;;;;;10.90;3.97;;;;;;;;;;4897994;29;20508;-88
2022/03/01 22:17:47;;;;;;;11.17;4.73;;;;;;;;;;4899123;29;20039;-88
2022/03/01 22:20:36;;;;;;;8.87;3.97;;;;;;;;;;4897687;29;20409;-87
2022/03/01 22:23:08;;;;;;;10.73;3.70;;;;;;;;;;4896871;29;20104;-88
2022/03/01 22:25:39;;;;;;;10.18;3.80;;;;;;;;;;4896505;29;20119;-88
2022/03/01 22:28:28;;;;;;;7.90;3.57;;;;;;;;;;4896429;29;20108;-87
2022/03/01 22:31:20;;;;;;;9.40;4.00;;;;;;;;;;4882955;29;20757;-89
2022/03/01 22:34:15;;;;;;;10.23;4.65;;;;;;;;;;4896280;29;20044;-88
2022/03/01 22:37:10;;;;;;;9.57;3.70;;;;;;;;;;4882502;29;20104;-89
2022/03/01 22:39:37;;;;;;;11.00;4.50;;;;;;;;;;4825422;29;20041;-88
2022/03/01 22:42:04;;;;;;;10.23;4.27;;;;;;;;;;4917566;23;20139;-84
2022/03/01 22:44:30;;;;;;;9.30;4.87;;;;;;;;;;4915478;29;20024;-85
2022/03/01 22:46:56;;;;;;;8.93;4.43;;;;;;;;;;4917476;29;20039;-85
2022/03/01 22:49:22;;;;;;;9.87;4.17;;;;;;;;;;4918124;29;20032;-82
2022/03/01 22:51:48;;;;;;;9.97;4.20;;;;;;;;;;4916924;29;20036;-83
2022/03/01 22:54:14;;;;;;;11.97;4.47;;;;;;;;;;4913524;29;20526;-84
2022/03/01 22:56:44;;;;;;;11.97;4.70;;;;;;;;;;4898546;29;20118;-84
2022/03/01 22:59:10;;;;;;;11.10;4.60;;;;;;;;;;4899070;29;20033;-84
2022/03/01 23:01:36;;;;;;;10.00;4.37;;;;;;;;;;4897945;29;20032;-83
2022/03/01 23:04:04;;;;;;;10.93;4.60;;;;;;;;;;4912953;29;20382;-85
2022/03/01 23:06:30;;;;;;;11.13;4.87;;;;;;;;;;4899150;29;20039;-84
2022/03/01 23:09:01;;;;;;;12.23;4.87;;;;;;;;;;4913308;29;20037;-84
2022/03/01 23:11:28;;;;;;;11.80;3.93;;;;;;;;;;4909534;29;20113;-83
2022/03/01 23:13:54;;;;;;;10.57;4.47;;;;;;;;;;4905114;29;20028;-83
2022/03/01 23:16:23;;;;;;;11.53;4.80;;;;;;;;;;4933166;29;20043;-84
2022/03/01 23:18:49;;;;;;;13.47;4.60;;;;;;;;;;4932911;29;20032;-82
2022/03/01 23:21:15;;;;;;;9.23;3.90;;;;;;;;;;4901940;29;20039;-82
2022/03/01 23:23:42;;;;;;;11.77;4.20;;;;;;;;;;4899664;29;20485;-83
2022/03/01 23:26:08;;;;;;;10.53;4.30;;;;;;;;;;4901113;29;20078;-83
2022/03/01 23:28:34;;;;;;;9.07;3.90;;;;;;;;;;4903097;29;20029;-81
2022/03/01 23:31:02;;;;;;;10.40;4.70;;;;;;;;;;4917576;29;20468;-83
2022/03/01 23:33:29;;;;;;;9.63;4.23;;;;;;;;;;4917643;29;20039;-83
2022/03/01 23:35:55;;;;;;;8.27;4.27;;;;;;;;;;4904020;29;20025;-82
2022/03/01 23:38:21;;;;;;;12.10;4.53;;;;;;;;;;4891081;29;20044;-84
2022/03/01 23:40:48;;;;;;;9.13;3.97;;;;;;;;;;4903255;29;20028;-85
2022/03/01 23:43:14;;;;;;;10.90;4.73;;;;;;;;;;4901205;29;20036;-85
2022/03/01 23:45:41;;;;;;;9.53;4.67;;;;;;;;;;4911971;29;20029;-86
2022/03/01 23:48:07;;;;;;;8.67;3.97;;;;;;;;;;4917543;29;20068;-86
2022/03/01 23:50:34;;;;;;;10.70;4.40;;;;;;;;;;4897652;29;20044;-85
2022/03/01 23:53:00;;;;;;;9.77;4.17;;;;;;;;;;4899982;29;20064;-84
2022/03/01 23:55:27;;;;;;;10.77;4.43;;;;;;;;;;4912380;29;20161;-85
2022/03/01 23:57:53;;;;;;;11.80;4.97;;;;;;;;;;4928578;29;20017;-85
